Terminal Aerodrome Forecast
Issued by NWS Green Bay, WI

Home | Current Version | Previous Version | Text Only | Print | Product List | Glossary Off
Versions: 1 2 3 4 5 6 7 8 9 10 11 12 13 14 15 16 17 18 19 20 21 22 23 24 25

000
FTUS43 KGRB 181130
TAFGRB
TAF
KGRB 181130Z 1812/1912 23005KT 5SM BR OVC005
     FM181500 24006KT P6SM OVC008
     FM181900 24008KT P6SM BKN012
     FM182300 23010KT P6SM SCT012 OVC100
     FM190400 23012G20KT P6SM BKN100=

USA.gov is the U.S. government's official web portal to all federal, state and local government web resources and services.